TAF and METAR

Could not understand the following METAR

NIUE 191500Z AUTO 14001KT //// ////// 23/22 Q1010.0

TAF for Hanan International Airport

TAF NIUE 191117Z 1912/2012 VRB02KT 9999 SCT018 SCT030
Report created 19. mar 12:17

between 19. mar 13:00 - 20. mar 13:00

wind 2 knots from various directions visibility > 10km scattered clouds (~50% cover) at 1800 feet scattered clouds (~50% cover) at 3000 feet
Hanan International Airport in Niue at 20m

Latest 5 airports